createdAt,value
2022-12-08T00:00:43.607Z,99.99
2022-12-08T00:01:43.314Z,99.99
2022-12-08T00:02:43.430Z,99.99
2022-12-08T00:03:43.386Z,99.99
2022-12-08T00:04:43.265Z,99.99
2022-12-08T00:05:43.220Z,99.99
2022-12-08T00:06:43.235Z,99.99
2022-12-08T00:07:43.555Z,99.99
2022-12-08T00:08:43.256Z,99.99
2022-12-08T00:09:43.194Z,99.99
2022-12-08T00:10:50.376Z,99.99
2022-12-08T00:11:43.177Z,99.99
2022-12-08T00:12:43.181Z,99.99
2022-12-08T00:13:43.141Z,99.99
2022-12-08T00:14:43.492Z,99.99
2022-12-08T00:15:43.132Z,99.99
2022-12-08T00:16:43.191Z,99.99
2022-12-08T00:17:43.094Z,99.99
2022-12-08T00:18:43.100Z,99.99
2022-12-08T00:19:43.064Z,99.99
2022-12-08T00:20:43.125Z,99.99
2022-12-08T00:21:43.363Z,99.99
2022-12-08T00:22:43.043Z,99.99
2022-12-08T00:23:43.084Z,99.99
2022-12-08T00:24:43.022Z,99.99
2022-12-08T00:25:43.024Z,99.99
2022-12-08T00:26:43.032Z,99.99
2022-12-08T00:27:43.003Z,99.99
2022-12-08T00:28:43.274Z,99.99
2022-12-08T00:29:42.961Z,99.99
2022-12-08T00:30:42.968Z,99.99
2022-12-08T00:31:43.065Z,99.99
2022-12-08T00:32:42.979Z,99.99
2022-12-08T00:33:42.926Z,99.99
2022-12-08T00:34:42.931Z,99.99
2022-12-08T00:35:43.542Z,99.99
2022-12-08T00:36:42.910Z,99.99
2022-12-08T00:37:42.889Z,99.99
2022-12-08T00:38:42.913Z,99.99
2022-12-08T00:39:42.861Z,99.99
2022-12-08T00:40:42.850Z,99.99
2022-12-08T00:41:42.866Z,99.99
2022-12-08T00:42:43.118Z,99.99
2022-12-08T00:43:42.809Z,99.99
2022-12-08T00:44:42.849Z,99.99
2022-12-08T00:45:42.856Z,99.99
2022-12-08T00:46:42.806Z,99.99
2022-12-08T00:47:42.780Z,99.99
2022-12-08T00:48:42.768Z,99.99
2022-12-08T00:49:43.059Z,99.99
2022-12-08T00:50:42.774Z,99.99
2022-12-08T00:51:42.758Z,99.99
2022-12-08T00:52:42.729Z,99.99
2022-12-08T00:53:42.716Z,99.99
2022-12-08T00:54:42.711Z,99.99
2022-12-08T00:55:42.687Z,99.99
2022-12-08T00:56:43.007Z,99.99
2022-12-08T00:57:42.706Z,99.99
2022-12-08T00:58:42.690Z,99.99
2022-12-08T00:59:42.653Z,99.99
2022-12-08T01:00:42.728Z,99.99
2022-12-08T01:01:42.950Z,99.99
2022-12-08T01:02:42.678Z,99.99
2022-12-08T01:03:42.656Z,99.99
2022-12-08T01:04:42.674Z,99.99
2022-12-08T01:05:42.610Z,99.99
2022-12-08T01:06:42.587Z,99.99
2022-12-08T01:07:42.650Z,99.99
2022-12-08T01:08:42.602Z,99.99
2022-12-08T01:09:42.563Z,99.99
2022-12-08T01:10:42.544Z,99.99
2022-12-08T01:11:42.523Z,99.99
2022-12-08T01:12:42.534Z,99.99
2022-12-08T01:13:42.807Z,99.99
2022-12-08T01:14:42.537Z,99.99
2022-12-08T01:15:42.476Z,99.99
2022-12-08T01:16:42.580Z,99.99
2022-12-08T01:17:42.472Z,99.99
2022-12-08T01:18:42.454Z,99.99
2022-12-08T01:19:42.459Z,99.99
2022-12-08T01:20:42.750Z,99.99
2022-12-08T01:21:42.465Z,99.99
2022-12-08T01:22:42.422Z,99.99
2022-12-08T01:23:42.401Z,99.99
2022-12-08T01:24:42.395Z,99.99
2022-12-08T01:25:42.428Z,99.99
2022-12-08T01:26:42.402Z,99.99
2022-12-08T01:27:42.632Z,99.99
2022-12-08T01:28:42.370Z,99.99
2022-12-08T01:29:42.336Z,99.99
2022-12-08T01:30:42.475Z,99.99
2022-12-08T01:31:42.350Z,99.99
2022-12-08T01:32:42.357Z,99.99
2022-12-08T01:33:42.295Z,99.99
2022-12-08T01:34:42.578Z,99.99
2022-12-08T01:35:42.275Z,99.99
2022-12-08T01:36:42.279Z,99.99
2022-12-08T01:37:42.253Z,99.99
2022-12-08T01:38:42.275Z,99.99
2022-12-08T01:39:42.238Z,99.99
2022-12-08T01:40:42.235Z,99.99
2022-12-08T01:41:42.491Z,99.99
2022-12-08T01:42:42.219Z,99.99
2022-12-08T01:43:42.208Z,99.99
2022-12-08T01:44:42.233Z,99.99
2022-12-08T01:45:43.172Z,99.99
2022-12-08T01:46:42.258Z,99.99
2022-12-08T01:47:42.197Z,99.99
2022-12-08T01:48:42.457Z,99.99
2022-12-08T01:49:42.172Z,99.99
2022-12-08T01:50:42.173Z,99.99
2022-12-08T01:51:42.109Z,99.99
2022-12-08T01:52:42.125Z,99.99
2022-12-08T01:53:42.088Z,99.99
2022-12-08T01:54:42.073Z,99.99
2022-12-08T01:55:42.381Z,99.99
2022-12-08T01:56:42.127Z,99.99
2022-12-08T01:57:42.042Z,99.99
2022-12-08T01:58:42.030Z,99.99
2022-12-08T01:59:42.034Z,99.99
2022-12-08T02:00:42.019Z,99.99
2022-12-08T02:01:42.050Z,99.99
2022-12-08T02:02:42.446Z,99.99
2022-12-08T02:03:41.985Z,99.99
2022-12-08T02:04:42.006Z,99.99
2022-12-08T02:05:41.968Z,99.99
2022-12-08T02:06:41.967Z,99.99
2022-12-08T02:07:41.988Z,99.99
2022-12-08T02:08:41.970Z,99.99
2022-12-08T02:09:42.292Z,99.99
2022-12-08T02:10:41.921Z,99.99
2022-12-08T02:11:41.914Z,99.99
2022-12-08T02:12:41.922Z,99.99
2022-12-08T02:13:41.874Z,99.99
2022-12-08T02:14:41.938Z,99.99
2022-12-08T02:15:41.941Z,99.99
2022-12-08T02:16:42.158Z,99.99
2022-12-08T02:17:41.835Z,99.99
2022-12-08T02:18:41.852Z,99.99
2022-12-08T02:19:41.829Z,99.99
2022-12-08T02:20:41.861Z,99.99
2022-12-08T02:21:41.808Z,99.99
2022-12-08T02:22:41.822Z,99.99
2022-12-08T02:23:42.054Z,99.99
2022-12-08T02:24:41.788Z,99.99
2022-12-08T02:25:41.752Z,99.99
2022-12-08T02:26:41.786Z,99.99
2022-12-08T02:27:41.754Z,99.99
2022-12-08T02:28:41.730Z,99.99
2022-12-08T02:29:41.711Z,99.99
2022-12-08T02:30:42.019Z,99.99
2022-12-08T02:31:41.702Z,99.99
2022-12-08T02:32:41.723Z,99.99
2022-12-08T02:33:41.777Z,99.99
2022-12-08T02:34:41.662Z,99.99
2022-12-08T02:35:41.648Z,99.99
2022-12-08T02:36:41.649Z,99.99
2022-12-08T02:37:41.920Z,99.99
2022-12-08T02:38:41.645Z,99.99
2022-12-08T02:39:41.616Z,99.99
2022-12-08T02:40:41.611Z,99.99
2022-12-08T02:41:41.582Z,99.99
2022-12-08T02:42:41.593Z,99.99
2022-12-08T02:43:41.563Z,99.99
2022-12-08T02:44:41.907Z,99.99
2022-12-08T02:45:41.548Z,99.99
2022-12-08T02:46:41.596Z,99.99
2022-12-08T02:47:41.519Z,99.99
2022-12-08T02:48:41.519Z,99.99
2022-12-08T02:49:41.503Z,99.99
2022-12-08T02:50:41.520Z,99.99
2022-12-08T02:51:41.761Z,99.99
2022-12-08T02:52:41.476Z,99.99
2022-12-08T02:53:41.466Z,99.99
2022-12-08T02:54:41.456Z,99.99
2022-12-08T02:55:41.433Z,99.99
2022-12-08T02:56:41.461Z,99.99
2022-12-08T02:57:41.431Z,99.99
2022-12-08T02:58:41.692Z,99.99
2022-12-08T02:59:41.407Z,99.99
2022-12-08T03:00:41.409Z,99.99
2022-12-08T03:01:41.402Z,99.99
2022-12-08T03:02:41.477Z,99.99
2022-12-08T03:03:41.355Z,99.99
2022-12-08T03:04:41.364Z,99.99
2022-12-08T03:05:41.620Z,99.99
2022-12-08T03:06:41.356Z,99.99
2022-12-08T03:07:41.387Z,99.99
2022-12-08T03:08:41.421Z,99.99
2022-12-08T03:09:41.316Z,99.99
2022-12-08T03:10:41.282Z,99.99
2022-12-08T03:11:41.270Z,99.99
2022-12-08T03:12:41.542Z,99.99
2022-12-08T03:13:41.252Z,99.99
2022-12-08T03:14:41.265Z,99.99
2022-12-08T03:15:41.264Z,99.99
2022-12-08T03:16:41.225Z,99.99
2022-12-08T03:17:41.216Z,99.99
2022-12-08T03:18:43.940Z,99.99
2022-12-08T03:19:41.485Z,99.99
2022-12-08T03:20:41.220Z,99.99
2022-12-08T03:21:41.181Z,99.99
2022-12-08T03:22:41.164Z,99.99
2022-12-08T03:23:41.146Z,99.99
2022-12-08T03:24:41.171Z,99.99
2022-12-08T03:25:41.126Z,99.99
2022-12-08T03:26:41.439Z,99.99
2022-12-08T03:27:41.114Z,99.99
2022-12-08T03:28:41.103Z,99.99
2022-12-08T03:29:41.098Z,99.99
2022-12-08T03:30:41.173Z,99.99
2022-12-08T03:31:41.101Z,99.99
2022-12-08T03:32:41.088Z,99.99
2022-12-08T03:33:41.323Z,99.99
2022-12-08T03:34:41.032Z,99.99
2022-12-08T03:35:41.035Z,99.99
2022-12-08T03:36:41.021Z,99.99
2022-12-08T03:37:41.003Z,99.99
2022-12-08T03:38:41.017Z,99.99
2022-12-08T03:39:40.983Z,99.99
2022-12-08T03:40:41.264Z,99.99
2022-12-08T03:41:40.988Z,99.99
2022-12-08T03:42:40.944Z,99.99
2022-12-08T03:43:40.942Z,99.99
2022-12-08T03:44:40.961Z,99.99
2022-12-08T03:45:40.921Z,99.99
2022-12-08T03:46:40.913Z,99.99
2022-12-08T03:47:41.203Z,99.99
2022-12-08T03:48:40.887Z,99.99
2022-12-08T03:49:40.883Z,99.99
2022-12-08T03:50:40.902Z,99.99
2022-12-08T03:51:40.923Z,99.99
2022-12-08T03:52:40.840Z,99.99
2022-12-08T03:53:40.842Z,99.99
2022-12-08T03:54:41.134Z,99.99
2022-12-08T03:55:40.819Z,99.99
2022-12-08T03:56:40.825Z,99.99
2022-12-08T03:57:40.800Z,99.99
2022-12-08T03:58:40.772Z,99.99
2022-12-08T03:59:40.782Z,99.99
2022-12-08T04:00:40.758Z,99.99
2022-12-08T04:01:41.122Z,99.99
2022-12-08T04:02:40.903Z,99.99
2022-12-08T04:03:40.733Z,99.99
2022-12-08T04:04:40.747Z,99.99
2022-12-08T04:05:40.721Z,99.99
2022-12-08T04:06:40.702Z,99.99
2022-12-08T04:07:40.761Z,99.99
2022-12-08T04:08:41.311Z,99.99
2022-12-08T04:09:40.673Z,99.99
2022-12-08T04:10:40.652Z,99.99
2022-12-08T04:11:40.652Z,99.99
2022-12-08T04:12:40.640Z,99.99
2022-12-08T04:13:40.641Z,99.99
2022-12-08T04:14:40.666Z,99.99
2022-12-08T04:15:40.949Z,99.99
2022-12-08T04:16:40.595Z,99.99
2022-12-08T04:17:40.582Z,99.99
2022-12-08T04:18:40.568Z,99.99
2022-12-08T04:19:40.564Z,99.99
2022-12-08T04:20:40.584Z,99.99
2022-12-08T04:21:40.546Z,99.99
2022-12-08T04:22:40.814Z,99.99
2022-12-08T04:23:40.526Z,99.99
2022-12-08T04:24:40.551Z,99.99
2022-12-08T04:25:40.497Z,99.99
2022-12-08T04:26:40.530Z,99.99
2022-12-08T04:27:40.499Z,99.99
2022-12-08T04:28:40.464Z,99.99
2022-12-08T04:29:40.737Z,99.99
2022-12-08T04:30:40.450Z,99.99
2022-12-08T04:31:40.526Z,99.99
2022-12-08T04:32:45.794Z,99.99
2022-12-08T04:33:40.449Z,99.99
2022-12-08T04:34:40.403Z,99.99
2022-12-08T04:35:40.394Z,99.99
2022-12-08T04:36:40.691Z,99.99
2022-12-08T04:37:40.369Z,99.99
2022-12-08T04:38:40.391Z,99.99
2022-12-08T04:39:40.356Z,99.99
2022-12-08T04:40:40.354Z,99.99
2022-12-08T04:41:40.327Z,99.99
2022-12-08T04:42:40.323Z,99.99
2022-12-08T04:43:40.588Z,99.99
2022-12-08T04:44:40.339Z,99.99
2022-12-08T04:45:40.287Z,99.99
2022-12-08T04:46:43.396Z,99.99
2022-12-08T04:47:40.268Z,99.99
2022-12-08T04:48:40.265Z,99.99
2022-12-08T04:49:40.256Z,99.99
2022-12-08T04:50:40.288Z,99.99
2022-12-08T04:51:40.235Z,99.99
2022-12-08T04:52:40.213Z,99.99
2022-12-08T04:53:46.144Z,99.99
2022-12-08T04:54:40.199Z,99.99
2022-12-08T04:55:40.194Z,99.99
2022-12-08T04:56:40.218Z,99.99
2022-12-08T04:57:40.201Z,99.99
2022-12-08T04:58:40.157Z,99.99
2022-12-08T04:59:40.159Z,99.99
2022-12-08T05:00:40.427Z,99.99
2022-12-08T05:01:40.261Z,99.99
2022-12-08T05:02:40.249Z,99.99
2022-12-08T05:03:40.097Z,99.99
2022-12-08T05:04:40.085Z,99.99
2022-12-08T05:05:40.086Z,99.99
2022-12-08T05:06:40.068Z,99.99
2022-12-08T05:07:40.142Z,99.99
2022-12-08T05:08:40.072Z,99.99
2022-12-08T05:09:40.059Z,99.99
2022-12-08T05:10:40.032Z,99.99
2022-12-08T05:11:43.923Z,99.99
2022-12-08T05:12:40.041Z,99.99
2022-12-08T05:13:40.012Z,99.99
2022-12-08T05:14:40.052Z,99.99
2022-12-08T05:15:40.003Z,99.99
2022-12-08T05:16:39.998Z,99.99
2022-12-08T05:17:39.959Z,99.99
2022-12-08T05:18:40.228Z,99.99
2022-12-08T05:19:39.943Z,99.99
2022-12-08T05:20:39.977Z,99.99
2022-12-08T05:21:39.912Z,99.99
2022-12-08T05:22:39.903Z,99.99
2022-12-08T05:23:39.913Z,99.99
2022-12-08T05:24:45.650Z,99.99
2022-12-08T05:25:39.877Z,99.99
2022-12-08T05:26:39.898Z,99.99
2022-12-08T05:27:39.858Z,99.99
2022-12-08T05:28:41.892Z,99.99
2022-12-08T05:29:39.841Z,99.99
2022-12-08T05:30:39.835Z,99.99
2022-12-08T05:31:40.237Z,99.99
2022-12-08T05:32:39.865Z,99.99
2022-12-08T05:33:39.871Z,99.99
2022-12-08T05:34:39.778Z,99.99
2022-12-08T05:35:39.787Z,99.99
2022-12-08T05:36:39.780Z,99.99
2022-12-08T05:37:39.772Z,99.99
2022-12-08T05:38:39.785Z,99.99
2022-12-08T05:39:39.736Z,99.99
2022-12-08T05:40:39.742Z,99.99
2022-12-08T05:41:39.737Z,99.99
2022-12-08T05:42:39.697Z,99.99
2022-12-08T05:43:40.005Z,99.99
2022-12-08T05:44:39.718Z,99.99
2022-12-08T05:45:39.775Z,99.99
2022-12-08T05:46:39.650Z,99.99
2022-12-08T05:47:39.653Z,99.99
2022-12-08T05:48:39.642Z,99.99
2022-12-08T05:49:39.624Z,99.99
2022-12-08T05:50:39.661Z,99.99
2022-12-08T05:51:39.623Z,99.99
2022-12-08T05:52:39.593Z,99.99
2022-12-08T05:53:39.607Z,99.99
2022-12-08T05:54:39.578Z,99.99
2022-12-08T05:55:39.858Z,99.99
2022-12-08T05:56:39.602Z,99.99
2022-12-08T05:57:39.550Z,99.99
2022-12-08T05:58:39.535Z,99.99
2022-12-08T05:59:39.527Z,99.99
2022-12-08T06:00:39.527Z,99.99
2022-12-08T06:01:39.550Z,99.99
2022-12-08T06:02:39.883Z,99.99
2022-12-08T06:03:39.477Z,99.99
2022-12-08T06:04:39.484Z,99.99
2022-12-08T06:05:39.465Z,99.99
2022-12-08T06:06:39.451Z,99.99
2022-12-08T06:07:39.489Z,99.99
2022-12-08T06:08:39.503Z,99.99
2022-12-08T06:09:39.699Z,99.99
2022-12-08T06:10:39.440Z,99.99
2022-12-08T06:11:39.460Z,99.99
2022-12-08T06:12:39.405Z,99.99
2022-12-08T06:13:39.385Z,99.99
2022-12-08T06:14:39.435Z,99.99
2022-12-08T06:15:39.379Z,99.99
2022-12-08T06:16:39.704Z,99.99
2022-12-08T06:17:39.339Z,99.99
2022-12-08T06:18:39.341Z,99.99
2022-12-08T06:19:39.337Z,99.99
2022-12-08T06:20:39.382Z,99.99
2022-12-08T06:21:39.297Z,99.99
2022-12-08T06:22:39.287Z,99.99
2022-12-08T06:23:39.570Z,99.99
2022-12-08T06:24:39.287Z,99.99
2022-12-08T06:25:39.265Z,99.99
2022-12-08T06:26:39.295Z,99.99
2022-12-08T06:27:39.252Z,99.99
2022-12-08T06:28:39.230Z,99.99
2022-12-08T06:29:39.217Z,99.99
2022-12-08T06:30:39.584Z,99.99
2022-12-08T06:31:39.329Z,99.99
2022-12-08T06:32:39.224Z,99.99
2022-12-08T06:33:39.174Z,99.99
2022-12-08T06:34:39.181Z,99.99
2022-12-08T06:35:39.162Z,99.99
2022-12-08T06:36:39.153Z,99.99
2022-12-08T06:37:39.419Z,99.99
2022-12-08T06:38:43.078Z,99.99
2022-12-08T06:39:39.111Z,99.99
2022-12-08T06:40:39.089Z,99.99
2022-12-08T06:41:39.107Z,99.99
2022-12-08T06:42:39.091Z,99.99
2022-12-08T06:43:39.077Z,99.99
2022-12-08T06:44:39.081Z,99.99
2022-12-08T06:45:39.098Z,99.99
2022-12-08T06:46:39.038Z,99.99
2022-12-08T06:47:39.032Z,99.99
2022-12-08T06:48:39.036Z,99.99
2022-12-08T06:49:39.028Z,99.99
2022-12-08T06:50:39.315Z,99.99
2022-12-08T06:51:38.996Z,99.99
2022-12-08T06:52:47.266Z,99.99
2022-12-08T06:53:38.974Z,99.99
2022-12-08T06:54:38.966Z,99.99
2022-12-08T06:56:38.962Z,99.99
2022-12-08T06:57:39.209Z,99.99
2022-12-08T06:58:38.934Z,99.99
2022-12-08T06:59:38.925Z,99.99
2022-12-08T07:00:38.888Z,99.99
2022-12-08T07:01:38.982Z,99.99
2022-12-08T07:02:38.967Z,99.99
2022-12-08T07:03:38.868Z,99.99
2022-12-08T07:04:38.879Z,99.99
2022-12-08T07:05:38.846Z,99.99
2022-12-08T07:06:38.830Z,99.99
2022-12-08T07:07:38.834Z,99.99
2022-12-08T07:08:38.867Z,99.99
2022-12-08T07:09:38.803Z,99.99
2022-12-08T07:10:39.104Z,99.99
2022-12-08T07:11:38.784Z,99.99
2022-12-08T07:12:38.765Z,99.99
2022-12-08T07:13:38.766Z,99.99
2022-12-08T07:14:38.781Z,99.99
2022-12-08T07:15:38.734Z,99.99
2022-12-08T07:16:38.787Z,99.99
2022-12-08T07:17:38.713Z,99.99
2022-12-08T07:18:38.705Z,99.99
2022-12-08T07:19:38.719Z,99.99
2022-12-08T07:20:38.754Z,99.99
2022-12-08T07:21:38.683Z,99.99
2022-12-08T07:22:38.692Z,99.99
2022-12-08T07:23:38.674Z,99.99
2022-12-08T07:24:38.664Z,99.99
2022-12-08T07:25:38.681Z,99.99
2022-12-08T07:26:38.651Z,99.99
2022-12-08T07:27:38.617Z,99.99
2022-12-08T07:28:38.881Z,99.99
2022-12-08T07:29:38.609Z,99.99
2022-12-08T07:30:38.745Z,99.99
2022-12-08T07:31:38.579Z,99.99
2022-12-08T07:32:38.605Z,99.99
2022-12-08T07:33:38.558Z,99.99
2022-12-08T07:34:38.540Z,99.99
2022-12-08T07:35:38.831Z,99.99
2022-12-08T07:36:38.523Z,99.99
2022-12-08T07:37:38.518Z,99.99
2022-12-08T07:38:38.554Z,99.99
2022-12-08T07:39:38.516Z,99.99
2022-12-08T07:40:38.486Z,99.99
2022-12-08T07:41:38.480Z,99.99
2022-12-08T07:42:38.506Z,99.99
2022-12-08T07:43:38.440Z,99.99
2022-12-08T07:44:38.482Z,99.99
2022-12-08T07:45:38.424Z,99.99
2022-12-08T07:46:38.526Z,99.99
2022-12-08T07:47:38.454Z,99.99
2022-12-08T07:48:38.742Z,99.99
2022-12-08T07:49:38.384Z,99.99
2022-12-08T07:50:38.437Z,99.99
2022-12-08T07:51:38.382Z,99.99
2022-12-08T07:52:38.377Z,99.99
2022-12-08T07:53:39.667Z,99.99
2022-12-08T07:54:38.325Z,99.99
2022-12-08T07:55:38.319Z,99.99
2022-12-08T07:56:38.350Z,99.99
2022-12-08T07:57:38.316Z,99.99
2022-12-08T07:58:38.351Z,99.99
2022-12-08T07:59:38.270Z,99.99
2022-12-08T08:00:38.415Z,99.99
2022-12-08T08:01:38.345Z,99.99
2022-12-08T08:02:38.521Z,99.99
2022-12-08T08:03:38.254Z,99.99
2022-12-08T08:04:38.341Z,99.99
2022-12-08T08:05:38.226Z,99.99
2022-12-08T08:06:38.212Z,99.99
2022-12-08T08:07:38.564Z,99.99
2022-12-08T08:08:38.226Z,99.99
2022-12-08T08:09:38.186Z,99.99
2022-12-08T08:10:38.179Z,99.99
2022-12-08T08:11:38.166Z,99.99
2022-12-08T08:12:38.164Z,99.99
2022-12-08T08:13:38.144Z,99.99
2022-12-08T08:14:38.462Z,99.99
2022-12-08T08:15:38.273Z,99.99
2022-12-08T08:16:38.919Z,99.99
2022-12-08T08:17:38.245Z,99.99
2022-12-08T08:18:38.090Z,99.99
2022-12-08T08:19:38.074Z,99.99
2022-12-08T08:20:38.142Z,99.99
2022-12-08T08:21:46.268Z,99.99
2022-12-08T08:22:38.104Z,99.99
2022-12-08T08:23:38.059Z,99.99
2022-12-08T08:24:43.154Z,99.99
2022-12-08T08:25:38.036Z,99.99
2022-12-08T08:26:38.080Z,99.99
2022-12-08T08:27:38.326Z,99.99
2022-12-08T08:28:38.005Z,99.99
2022-12-08T08:29:37.993Z,99.99
2022-12-08T08:30:38.026Z,99.99
2022-12-08T08:31:38.017Z,99.99
2022-12-08T08:32:37.993Z,99.99
2022-12-08T08:33:37.963Z,99.99
2022-12-08T08:34:37.960Z,99.99
2022-12-08T08:35:37.945Z,99.99
2022-12-08T08:36:37.890Z,99.99
2022-12-08T08:37:37.935Z,99.99
2022-12-08T08:38:38.027Z,99.99
2022-12-08T08:39:38.196Z,99.99
2022-12-08T08:40:37.892Z,99.99
2022-12-08T08:41:37.925Z,99.99
2022-12-08T08:42:37.854Z,99.99
2022-12-08T08:43:38.771Z,99.99
2022-12-08T08:44:37.883Z,99.99
2022-12-08T08:45:37.846Z,99.99
2022-12-08T08:46:37.828Z,99.99
2022-12-08T08:47:37.796Z,99.99
2022-12-08T08:48:37.813Z,99.99
2022-12-08T08:49:37.805Z,99.99
2022-12-08T08:50:38.020Z,99.99
2022-12-08T08:51:38.057Z,99.99
2022-12-08T08:52:37.765Z,99.99
2022-12-08T08:53:37.733Z,99.99
2022-12-08T08:54:37.736Z,99.99
2022-12-08T08:55:37.730Z,99.99
2022-12-08T08:56:37.908Z,99.99
2022-12-08T08:57:37.720Z,99.99
2022-12-08T08:58:37.697Z,99.99
2022-12-08T08:59:37.715Z,99.99
2022-12-08T09:00:37.648Z,99.99
2022-12-08T09:01:37.784Z,99.99
2022-12-08T09:02:37.666Z,99.99
2022-12-08T09:03:37.614Z,99.99
2022-12-08T09:04:38.035Z,99.99
2022-12-08T09:05:37.642Z,99.99
2022-12-08T09:06:37.679Z,99.99
2022-12-08T09:07:37.708Z,99.99
2022-12-08T09:08:37.645Z,99.99
2022-12-08T09:09:37.650Z,99.99
2022-12-08T09:10:37.540Z,99.99
2022-12-08T09:11:37.901Z,99.99
2022-12-08T09:12:37.571Z,99.99
2022-12-08T09:13:37.513Z,99.99
2022-12-08T09:14:37.564Z,99.99
2022-12-08T09:15:37.568Z,99.99
2022-12-08T09:16:41.978Z,99.99
2022-12-08T09:17:37.486Z,99.99
2022-12-08T09:18:37.488Z,99.99
2022-12-08T09:19:37.481Z,99.99
2022-12-08T09:20:37.481Z,99.99
2022-12-08T09:21:37.457Z,99.99
2022-12-08T09:22:37.427Z,99.99
2022-12-08T09:23:37.401Z,99.99
2022-12-08T09:24:37.426Z,99.99
2022-12-08T09:25:37.461Z,99.99
2022-12-08T09:26:37.446Z,99.99
2022-12-08T09:27:37.390Z,99.99
2022-12-08T09:28:37.363Z,99.99
2022-12-08T09:29:37.369Z,99.99
2022-12-08T09:30:37.645Z,99.99
2022-12-08T09:31:37.454Z,99.99
2022-12-08T09:32:37.457Z,99.99
2022-12-08T09:33:37.307Z,99.99
2022-12-08T09:34:37.362Z,99.99
2022-12-08T09:35:37.344Z,99.99
2022-12-08T09:36:37.352Z,99.99
2022-12-08T09:37:37.265Z,99.99
2022-12-08T09:38:37.335Z,99.99
2022-12-08T09:39:37.283Z,99.99
2022-12-08T09:40:37.241Z,99.99
2022-12-08T09:41:43.310Z,99.99
2022-12-08T09:42:37.256Z,99.99
2022-12-08T09:43:37.259Z,99.99
2022-12-08T09:44:37.235Z,99.99
2022-12-08T09:45:37.174Z,99.99
2022-12-08T09:46:37.293Z,99.99
2022-12-08T09:47:37.204Z,99.99
2022-12-08T09:48:37.442Z,99.99
2022-12-08T09:49:37.149Z,99.99
2022-12-08T09:50:37.229Z,99.99
2022-12-08T09:51:37.141Z,99.99
2022-12-08T09:52:37.152Z,99.99
2022-12-08T09:53:37.134Z,99.99
2022-12-08T09:54:37.103Z,99.99
2022-12-08T09:55:37.379Z,99.99
2022-12-08T09:56:37.126Z,99.99
2022-12-08T09:57:37.068Z,99.99
2022-12-08T09:58:37.900Z,99.99
2022-12-08T09:59:37.140Z,99.99
2022-12-08T10:00:37.036Z,99.99
2022-12-08T10:01:37.095Z,99.99
2022-12-08T10:02:37.449Z,99.99
2022-12-08T10:03:37.018Z,99.99
2022-12-08T10:04:37.094Z,99.99
2022-12-08T10:05:37.073Z,99.99
2022-12-08T10:06:36.976Z,99.99
2022-12-08T10:07:37.082Z,99.99
2022-12-08T10:08:37.032Z,99.99
2022-12-08T10:09:39.240Z,99.99
2022-12-08T10:10:36.920Z,99.99
2022-12-08T10:11:36.925Z,99.99
2022-12-08T10:12:36.905Z,99.99
2022-12-08T10:13:36.903Z,99.99
2022-12-08T10:14:36.961Z,99.99
2022-12-08T10:15:36.878Z,99.99
2022-12-08T10:16:37.280Z,99.99
2022-12-08T10:17:36.871Z,99.99
2022-12-08T10:18:36.826Z,99.99
2022-12-08T10:19:36.828Z,99.99
2022-12-08T10:20:36.899Z,99.99
2022-12-08T10:21:36.838Z,99.99
2022-12-08T10:22:42.871Z,99.99
2022-12-08T10:23:36.825Z,99.99
2022-12-08T10:24:36.788Z,99.99
2022-12-08T10:25:36.776Z,99.99
2022-12-08T10:26:36.841Z,99.99
2022-12-08T10:27:36.756Z,99.99
2022-12-08T10:28:42.996Z,99.99
2022-12-08T10:29:36.755Z,99.99
2022-12-08T10:30:36.731Z,99.99
2022-12-08T10:31:36.774Z,99.99
2022-12-08T10:32:36.820Z,99.99
2022-12-08T10:33:36.703Z,99.99
2022-12-08T10:34:36.714Z,99.99
2022-12-08T10:35:36.963Z,99.99
2022-12-08T10:36:36.678Z,99.99
2022-12-08T10:37:36.698Z,99.99
2022-12-08T10:38:36.717Z,99.99
2022-12-08T10:39:36.667Z,99.99
2022-12-08T10:40:42.151Z,99.99
2022-12-08T10:41:36.659Z,99.99
2022-12-08T10:42:36.888Z,99.99
2022-12-08T10:43:36.576Z,99.99
2022-12-08T10:44:36.637Z,99.99
2022-12-08T10:45:36.566Z,99.99
2022-12-08T10:46:36.587Z,99.99
2022-12-08T10:47:36.527Z,99.99
2022-12-08T10:48:36.549Z,99.99
2022-12-08T10:49:36.807Z,99.99
2022-12-08T10:50:36.665Z,99.99
2022-12-08T10:51:36.528Z,99.99
2022-12-08T10:52:36.511Z,99.99
2022-12-08T10:53:36.500Z,99.99
2022-12-08T10:54:36.493Z,99.99
2022-12-08T10:55:36.523Z,99.99
2022-12-08T10:56:36.490Z,99.99
2022-12-08T10:57:36.460Z,99.99
2022-12-08T10:58:36.507Z,99.99
2022-12-08T10:59:36.475Z,99.99
2022-12-08T11:00:37.518Z,99.99
2022-12-08T11:01:36.627Z,99.99
2022-12-08T11:02:36.836Z,99.99
2022-12-08T11:03:36.438Z,99.99
2022-12-08T11:04:36.369Z,99.99
2022-12-08T11:05:36.382Z,99.99
2022-12-08T11:06:36.343Z,99.99
2022-12-08T11:07:36.522Z,99.99
2022-12-08T11:08:36.376Z,99.99
2022-12-08T11:09:36.305Z,99.99
2022-12-08T11:10:36.291Z,99.99
2022-12-08T11:11:36.337Z,99.99
2022-12-08T11:12:36.264Z,99.99
2022-12-08T11:13:36.265Z,99.99
2022-12-08T11:14:36.618Z,99.99
2022-12-08T11:15:36.255Z,99.99
2022-12-08T11:16:36.351Z,99.99
2022-12-08T11:17:36.224Z,99.99
2022-12-08T11:18:36.251Z,99.99
2022-12-08T11:19:36.189Z,99.99
2022-12-08T11:20:36.258Z,99.99
2022-12-08T11:21:36.181Z,99.99
2022-12-08T11:22:36.233Z,99.99
2022-12-08T11:23:36.191Z,99.99
2022-12-08T11:24:37.814Z,99.99
2022-12-08T11:25:36.131Z,99.99
2022-12-08T11:26:36.185Z,99.99
2022-12-08T11:27:36.460Z,99.99
2022-12-08T11:28:36.132Z,99.99
2022-12-08T11:29:36.101Z,99.99
2022-12-08T11:30:36.148Z,99.99
2022-12-08T11:31:36.138Z,99.99
2022-12-08T11:32:36.180Z,99.99
2022-12-08T11:33:36.067Z,99.99
2022-12-08T11:34:36.359Z,99.99
2022-12-08T11:35:36.076Z,99.99
2022-12-08T11:36:36.050Z,99.99
2022-12-08T11:37:36.039Z,99.99
2022-12-08T11:38:36.187Z,99.99
2022-12-08T11:39:36.139Z,99.99
2022-12-08T11:40:36.887Z,99.99
2022-12-08T11:41:36.299Z,99.99
2022-12-08T11:42:35.957Z,99.99
2022-12-08T11:43:35.953Z,99.99
2022-12-08T11:44:35.984Z,99.99
2022-12-08T11:45:35.987Z,99.99
2022-12-08T11:46:36.120Z,99.99
2022-12-08T11:47:35.994Z,99.99
2022-12-08T11:48:36.224Z,99.99
2022-12-08T11:49:35.897Z,99.99
2022-12-08T11:50:35.926Z,99.99
2022-12-08T11:51:35.869Z,99.99
2022-12-08T11:52:35.833Z,99.51
2022-12-08T11:53:35.861Z,99.82
2022-12-08T11:54:35.895Z,99.99
2022-12-08T11:55:37.558Z,99.99
2022-12-08T11:56:35.850Z,99.99
2022-12-08T11:57:35.929Z,99.92
2022-12-08T11:58:35.792Z,99.92
2022-12-08T11:59:35.812Z,99.92
2022-12-08T12:00:35.809Z,99.82
2022-12-08T12:01:42.252Z,99.82
2022-12-08T12:02:35.848Z,99.82
2022-12-08T12:03:35.855Z,99.61
2022-12-08T12:04:35.773Z,99.61
2022-12-08T12:06:54.183Z,99.71
2022-12-08T12:07:35.747Z,99.82
2022-12-08T12:08:36.041Z,99.82
2022-12-08T12:09:35.709Z,99.82
2022-12-08T12:10:35.671Z,99.71
2022-12-08T12:11:35.698Z,99.82
2022-12-08T12:12:39.649Z,99.51
2022-12-08T12:13:35.683Z,99.30
2022-12-08T12:14:35.758Z,98.99
2022-12-08T12:15:35.612Z,99.15
2022-12-08T12:16:35.778Z,98.94
2022-12-08T12:17:35.597Z,99.25
2022-12-08T12:18:35.594Z,99.15
2022-12-08T12:19:35.554Z,98.94
2022-12-08T12:20:35.697Z,98.83
2022-12-08T12:21:35.875Z,98.73
2022-12-08T12:22:35.559Z,99.04
2022-12-08T12:23:35.547Z,99.04
2022-12-08T12:24:36.358Z,98.73
2022-12-08T12:25:35.533Z,98.94
2022-12-08T12:26:35.640Z,98.52
2022-12-08T12:27:35.623Z,98.63
2022-12-08T12:28:35.777Z,98.32
2022-12-08T12:29:35.524Z,98.21
2022-12-08T12:30:35.504Z,98.32
2022-12-08T12:31:35.466Z,98.52
2022-12-08T12:32:35.525Z,98.79
2022-12-08T12:33:35.421Z,98.90
2022-12-08T12:34:35.438Z,98.90
2022-12-08T12:35:35.679Z,99.21
2022-12-08T12:36:35.407Z,99.52
2022-12-08T12:37:35.368Z,99.10
2022-12-08T12:38:35.439Z,98.90
2022-12-08T12:39:35.406Z,99.00
2022-12-08T12:40:35.354Z,99.10
2022-12-08T12:41:35.380Z,99.15
2022-12-08T12:42:35.627Z,99.46
2022-12-08T12:43:35.343Z,99.46
2022-12-08T12:44:35.490Z,99.66
2022-12-08T12:45:35.324Z,99.77
2022-12-08T12:46:35.383Z,99.87
2022-12-08T12:47:35.301Z,99.46
2022-12-08T12:48:35.283Z,99.15
2022-12-08T12:49:35.300Z,98.94
2022-12-08T12:50:35.325Z,98.94
2022-12-08T12:51:35.299Z,98.94
2022-12-08T12:52:35.365Z,98.73
2022-12-08T12:53:35.264Z,99.15
2022-12-08T12:54:35.356Z,99.46